createdAt,value
2022-12-25T00:01:27.986Z,7.32
2022-12-25T00:03:54.622Z,7.28
2022-12-25T00:06:21.293Z,7.25
2022-12-25T00:08:47.962Z,7.24
2022-12-25T00:11:17.470Z,7.24
2022-12-25T00:13:44.681Z,7.24
2022-12-25T00:16:16.023Z,7.23
2022-12-25T00:18:42.959Z,7.20
2022-12-25T00:21:15.196Z,7.17
2022-12-25T00:23:45.142Z,7.16
2022-12-25T00:26:15.478Z,7.13
2022-12-25T00:28:42.644Z,7.13
2022-12-25T00:31:12.488Z,7.12
2022-12-25T00:33:41.173Z,7.09
2022-12-25T00:36:08.918Z,7.07
2022-12-25T00:38:37.199Z,7.03
2022-12-25T00:41:15.272Z,7.00
2022-12-25T00:43:42.337Z,6.97
2022-12-25T00:46:11.022Z,6.94
2022-12-25T00:48:38.558Z,6.90
2022-12-25T00:51:08.544Z,6.90
2022-12-25T00:53:35.136Z,6.89
2022-12-25T00:56:04.705Z,6.86
2022-12-25T00:58:33.571Z,6.86
2022-12-25T01:01:00.557Z,6.83
2022-12-25T01:03:27.336Z,6.81
2022-12-25T01:06:00.207Z,6.82
2022-12-25T01:08:27.958Z,6.82
2022-12-25T01:11:00.219Z,6.80
2022-12-25T01:13:27.607Z,6.80
2022-12-25T01:15:54.709Z,6.78
2022-12-25T01:18:23.052Z,6.78
2022-12-25T01:20:49.685Z,6.75
2022-12-25T01:23:17.145Z,6.75
2022-12-25T01:25:43.806Z,6.74
2022-12-25T01:28:10.316Z,6.73
2022-12-25T01:30:36.810Z,6.71
2022-12-25T01:33:03.491Z,6.70
2022-12-25T01:35:30.107Z,6.67
2022-12-25T01:37:56.827Z,6.66
2022-12-25T01:40:23.510Z,6.63
2022-12-25T01:42:50.172Z,6.63
2022-12-25T01:45:43.831Z,6.63
2022-12-25T01:48:17.142Z,6.60
2022-12-25T01:50:47.623Z,6.59
2022-12-25T01:53:14.435Z,6.56
2022-12-25T01:55:44.321Z,6.55
2022-12-25T01:58:10.927Z,6.53
2022-12-25T02:00:37.498Z,6.53
2022-12-25T02:03:04.928Z,6.54
2022-12-25T02:05:33.883Z,6.55
2022-12-25T02:08:08.560Z,6.56
2022-12-25T02:10:35.141Z,6.54
2022-12-25T02:13:02.348Z,6.51
2022-12-25T02:15:40.484Z,6.48
2022-12-25T02:18:14.897Z,6.46
2022-12-25T02:20:50.852Z,6.41
2022-12-25T02:23:38.473Z,6.38
2022-12-25T02:26:30.811Z,6.37
2022-12-25T02:29:05.197Z,6.34
2022-12-25T02:31:31.836Z,6.31
2022-12-25T02:34:16.821Z,6.30
2022-12-25T02:36:53.901Z,6.30
2022-12-25T02:40:00.741Z,6.30
2022-12-25T02:42:57.811Z,6.30
2022-12-25T02:45:57.853Z,6.27
2022-12-25T02:48:49.128Z,6.26
2022-12-25T02:51:37.937Z,6.30
2022-12-25T02:54:28.645Z,6.32
2022-12-25T02:57:17.040Z,6.33
2022-12-25T03:00:05.979Z,6.32
2022-12-25T03:02:52.578Z,6.37
2022-12-25T03:05:41.509Z,6.36
2022-12-25T03:08:13.958Z,6.38
2022-12-25T03:11:03.661Z,6.38
2022-12-25T03:13:36.796Z,6.39
2022-12-25T03:16:22.916Z,6.38
2022-12-25T03:18:49.576Z,6.35
2022-12-25T03:21:34.840Z,6.36
2022-12-25T03:24:20.677Z,6.36
2022-12-25T03:26:56.656Z,6.38
2022-12-25T03:29:49.427Z,6.38
2022-12-25T03:32:22.710Z,6.38
2022-12-25T03:35:25.819Z,6.38
2022-12-25T03:38:35.640Z,6.37
2022-12-25T03:41:35.869Z,6.35
2022-12-25T03:44:35.020Z,6.34
2022-12-25T03:47:26.801Z,6.31
2022-12-25T03:50:25.796Z,6.30
2022-12-25T03:53:13.321Z,6.27
2022-12-25T03:55:59.787Z,6.28
2022-12-25T03:58:45.981Z,6.28
2022-12-25T04:01:32.565Z,6.28
2022-12-25T04:04:17.581Z,6.23
2022-12-25T04:07:02.727Z,6.18
2022-12-25T04:09:47.941Z,6.14
2022-12-25T04:12:32.797Z,6.11
2022-12-25T04:15:18.221Z,6.07
2022-12-25T04:18:03.218Z,6.03
2022-12-25T04:20:48.547Z,6.01
2022-12-25T04:23:33.813Z,5.99
2022-12-25T04:26:19.384Z,5.93
2022-12-25T04:29:04.721Z,5.91
2022-12-25T04:31:49.929Z,5.85
2022-12-25T04:34:34.962Z,5.79
2022-12-25T04:37:01.524Z,5.76
2022-12-25T04:39:28.043Z,5.70
2022-12-25T04:41:54.594Z,5.64
2022-12-25T04:44:21.171Z,5.62
2022-12-25T04:46:47.683Z,5.58
2022-12-25T04:49:14.181Z,5.55
2022-12-25T04:51:40.735Z,5.53
2022-12-25T04:54:07.312Z,5.47
2022-12-25T04:56:34.471Z,5.44
2022-12-25T04:59:03.025Z,5.40
2022-12-25T05:01:29.884Z,5.37
2022-12-25T05:03:56.676Z,5.34
2022-12-25T05:06:23.322Z,5.31
2022-12-25T05:08:49.930Z,5.28
2022-12-25T05:11:17.069Z,5.25
2022-12-25T05:13:44.373Z,5.23
2022-12-25T05:16:16.926Z,5.19
2022-12-25T05:18:44.191Z,5.18
2022-12-25T05:21:12.424Z,5.15
2022-12-25T05:23:39.366Z,5.13
2022-12-25T05:26:07.265Z,5.10
2022-12-25T05:28:35.265Z,5.09
2022-12-25T05:31:02.228Z,5.07
2022-12-25T05:33:28.838Z,5.05
2022-12-25T05:35:55.336Z,5.06
2022-12-25T05:38:21.876Z,5.02
2022-12-25T05:40:51.716Z,5.01
2022-12-25T05:43:19.649Z,4.97
2022-12-25T05:45:46.328Z,4.94
2022-12-25T05:48:13.041Z,4.89
2022-12-25T05:50:39.692Z,4.84
2022-12-25T05:53:08.820Z,4.80
2022-12-25T05:55:41.070Z,4.78
2022-12-25T05:58:08.422Z,4.74
2022-12-25T06:00:35.392Z,4.72
2022-12-25T06:03:02.074Z,4.65
2022-12-25T06:05:28.775Z,4.62
2022-12-25T06:07:55.524Z,4.57
2022-12-25T06:10:22.369Z,4.55
2022-12-25T06:12:48.932Z,4.52
2022-12-25T06:15:15.576Z,4.51
2022-12-25T06:17:42.124Z,4.51
2022-12-25T06:20:09.120Z,4.50
2022-12-25T06:22:35.718Z,4.49
2022-12-25T06:25:02.627Z,4.48
2022-12-25T06:27:29.154Z,4.50
2022-12-25T06:29:55.792Z,4.50
2022-12-25T06:32:22.398Z,4.51
2022-12-25T06:34:49.068Z,4.55
2022-12-25T06:37:15.651Z,4.56
2022-12-25T06:39:42.258Z,4.56
2022-12-25T06:42:09.166Z,4.56
2022-12-25T06:44:35.732Z,4.57
2022-12-25T06:47:02.354Z,4.55
2022-12-25T06:49:28.990Z,4.51
2022-12-25T06:51:55.948Z,4.53
2022-12-25T06:54:22.616Z,4.52
2022-12-25T06:56:49.892Z,4.54
2022-12-25T06:59:16.530Z,4.56
2022-12-25T07:01:49.464Z,4.58
2022-12-25T07:04:21.305Z,4.64
2022-12-25T07:06:47.867Z,4.66
2022-12-25T07:09:14.598Z,4.70
2022-12-25T07:11:41.274Z,4.73
2022-12-25T07:14:07.959Z,4.78
2022-12-25T07:16:34.709Z,4.81
2022-12-25T07:19:01.436Z,4.87
2022-12-25T07:21:27.997Z,4.92
2022-12-25T07:23:54.566Z,4.97
2022-12-25T07:26:21.285Z,5.01
2022-12-25T07:28:47.880Z,5.01
2022-12-25T07:31:16.514Z,5.01
2022-12-25T07:33:43.954Z,5.06
2022-12-25T07:36:12.962Z,5.10
2022-12-25T07:38:41.042Z,5.16
2022-12-25T07:41:10.240Z,5.20
2022-12-25T07:43:37.121Z,5.23
2022-12-25T07:46:05.170Z,5.26
2022-12-25T07:48:33.945Z,5.29
2022-12-25T07:51:03.542Z,5.33
2022-12-25T07:53:30.221Z,5.37
2022-12-25T07:56:05.467Z,5.40
2022-12-25T07:58:35.321Z,5.43
2022-12-25T08:01:07.619Z,5.47
2022-12-25T08:03:35.058Z,5.54
2022-12-25T08:06:08.201Z,5.56
2022-12-25T08:08:36.227Z,5.59
2022-12-25T08:11:03.230Z,5.65
2022-12-25T08:13:34.443Z,5.70
2022-12-25T08:16:03.035Z,5.75
2022-12-25T08:18:32.856Z,5.77
2022-12-25T08:21:05.011Z,5.83
2022-12-25T08:23:34.416Z,5.86
2022-12-25T08:26:05.476Z,5.90
2022-12-25T08:28:36.070Z,5.93
2022-12-25T08:31:27.240Z,6.00
2022-12-25T08:33:56.629Z,6.04
2022-12-25T08:36:23.653Z,6.12
2022-12-25T08:38:55.709Z,6.19
2022-12-25T08:41:25.192Z,6.26
2022-12-25T08:43:51.795Z,6.27
2022-12-25T08:46:18.574Z,6.34
2022-12-25T08:48:46.345Z,6.34
2022-12-25T08:51:16.404Z,6.36
2022-12-25T08:53:44.225Z,6.39
2022-12-25T08:56:11.369Z,6.42
2022-12-25T08:58:38.427Z,6.41
2022-12-25T09:01:05.842Z,6.49
2022-12-25T09:03:32.718Z,6.52
2022-12-25T09:06:04.512Z,6.64
2022-12-25T09:08:31.315Z,6.72
2022-12-25T09:11:10.256Z,6.80
2022-12-25T09:13:37.966Z,6.88
2022-12-25T09:16:09.841Z,6.97
2022-12-25T09:18:37.121Z,7.02
2022-12-25T09:21:06.388Z,7.07
2022-12-25T09:23:35.454Z,7.11
2022-12-25T09:26:04.504Z,7.13
2022-12-25T09:28:32.138Z,7.16
2022-12-25T09:30:59.375Z,7.16
2022-12-25T09:33:26.062Z,7.24
2022-12-25T09:35:54.657Z,7.27
2022-12-25T09:38:21.533Z,7.39
2022-12-25T09:40:48.247Z,7.45
2022-12-25T09:43:21.345Z,7.47
2022-12-25T09:45:48.069Z,7.48
2022-12-25T09:48:16.522Z,7.53
2022-12-25T09:51:00.114Z,7.60
2022-12-25T09:53:38.664Z,7.64
2022-12-25T09:56:16.714Z,7.69
2022-12-25T09:58:43.908Z,7.75
2022-12-25T10:01:39.258Z,7.75
2022-12-25T10:04:12.195Z,7.83
2022-12-25T10:06:38.784Z,7.84
2022-12-25T10:09:20.541Z,7.89
2022-12-25T10:12:00.451Z,7.92
2022-12-25T10:14:35.478Z,7.94
2022-12-25T10:17:09.293Z,7.95
2022-12-25T10:19:41.606Z,7.97
2022-12-25T10:22:27.806Z,8.00
2022-12-25T10:24:58.071Z,8.02
2022-12-25T10:27:42.919Z,8.06
2022-12-25T10:30:16.002Z,8.05
2022-12-25T10:32:44.534Z,8.09
2022-12-25T10:35:16.886Z,8.06
2022-12-25T10:37:46.509Z,8.09
2022-12-25T10:40:25.058Z,8.14
2022-12-25T10:43:50.066Z,8.13
2022-12-25T10:46:17.993Z,8.12
2022-12-25T10:48:56.171Z,8.20
2022-12-25T10:51:33.563Z,8.17
2022-12-25T10:54:02.788Z,8.17
2022-12-25T10:56:29.987Z,8.19
2022-12-25T10:59:07.388Z,8.24
2022-12-25T11:01:34.259Z,8.27
2022-12-25T11:04:01.164Z,8.32
2022-12-25T11:06:31.588Z,8.36
2022-12-25T11:09:00.790Z,8.39
2022-12-25T11:11:28.926Z,8.42
2022-12-25T11:14:01.901Z,8.40
2022-12-25T11:16:40.346Z,8.35
2022-12-25T11:19:33.220Z,8.29
2022-12-25T11:22:02.608Z,8.20
2022-12-25T11:24:31.703Z,8.13
2022-12-25T11:27:01.521Z,8.11
2022-12-25T11:30:04.287Z,8.11
2022-12-25T11:33:06.867Z,8.13
2022-12-25T11:35:46.757Z,8.19
2022-12-25T11:38:13.800Z,8.27
2022-12-25T11:40:49.219Z,8.37
2022-12-25T11:43:23.732Z,8.46
2022-12-25T11:46:09.231Z,8.50
2022-12-25T11:48:50.102Z,8.57
2022-12-25T11:51:17.977Z,8.63
2022-12-25T11:53:52.933Z,8.67
2022-12-25T11:56:24.346Z,8.71
2022-12-25T11:59:27.803Z,8.75
2022-12-25T12:02:11.131Z,8.77
2022-12-25T12:04:46.579Z,8.79
2022-12-25T12:07:29.443Z,8.78
2022-12-25T12:10:30.336Z,8.75
2022-12-25T12:13:15.640Z,8.73
2022-12-25T12:15:43.847Z,8.72
2022-12-25T12:18:33.009Z,8.64
2022-12-25T12:21:30.358Z,8.64
2022-12-25T12:24:26.131Z,8.66
2022-12-25T12:27:02.656Z,8.69
2022-12-25T12:29:39.305Z,8.77
2022-12-25T12:32:06.659Z,8.84
2022-12-25T12:34:42.774Z,8.90
2022-12-25T12:37:40.694Z,8.95
2022-12-25T12:40:22.100Z,8.99
2022-12-25T12:42:51.123Z,9.05
2022-12-25T12:45:24.013Z,9.11
2022-12-25T12:47:52.608Z,9.14
2022-12-25T12:50:42.612Z,9.19
2022-12-25T12:53:27.131Z,9.21
2022-12-25T12:55:53.736Z,9.24
2022-12-25T12:58:33.731Z,9.21
2022-12-25T13:01:12.643Z,9.13
2022-12-25T13:03:48.766Z,9.13
2022-12-25T13:06:17.787Z,9.16
2022-12-25T13:08:55.261Z,9.18
2022-12-25T13:11:26.306Z,9.18
2022-12-25T13:13:54.304Z,9.18
2022-12-25T13:16:26.959Z,9.16
2022-12-25T13:18:54.567Z,9.17
2022-12-25T13:21:23.003Z,9.13
2022-12-25T13:23:55.325Z,9.12
2022-12-25T13:26:21.813Z,9.15
2022-12-25T13:28:48.372Z,9.16
2022-12-25T13:31:17.763Z,9.10
2022-12-25T13:33:49.466Z,9.11
2022-12-25T13:36:16.722Z,9.09
2022-12-25T13:38:46.807Z,9.08
2022-12-25T13:41:39.207Z,9.06
2022-12-25T13:44:14.615Z,9.05
2022-12-25T13:46:41.269Z,9.03
2022-12-25T13:49:14.100Z,9.02
2022-12-25T13:51:40.676Z,9.03
2022-12-25T13:54:07.213Z,9.07
2022-12-25T13:56:34.402Z,9.09
2022-12-25T13:59:00.928Z,8.97
2022-12-25T14:01:28.159Z,8.90
2022-12-25T14:03:56.582Z,8.96
2022-12-25T14:06:27.704Z,8.91
2022-12-25T14:08:55.352Z,8.90
2022-12-25T14:11:23.229Z,8.84
2022-12-25T14:13:51.130Z,8.81
2022-12-25T14:16:18.811Z,8.77
2022-12-25T14:18:52.507Z,8.71
2022-12-25T14:21:41.000Z,8.64
2022-12-25T14:24:14.991Z,8.61
2022-12-25T14:26:41.637Z,8.55
2022-12-25T14:29:16.524Z,8.55
2022-12-25T14:31:44.855Z,8.55
2022-12-25T14:34:15.343Z,8.53
2022-12-25T14:36:42.173Z,8.48
2022-12-25T14:39:22.587Z,8.46
2022-12-25T14:41:53.851Z,8.41
2022-12-25T14:44:36.115Z,8.37
2022-12-25T14:47:20.914Z,8.33
2022-12-25T14:49:48.229Z,8.26
2022-12-25T14:52:42.305Z,8.22
2022-12-25T14:55:20.251Z,8.19
2022-12-25T14:57:56.092Z,8.13
2022-12-25T15:00:26.710Z,8.09
2022-12-25T15:02:56.021Z,8.05
2022-12-25T15:05:33.623Z,8.01
2022-12-25T15:08:11.131Z,7.97
2022-12-25T15:13:26.601Z,7.98
2022-12-25T15:16:14.627Z,7.93
2022-12-25T15:18:44.056Z,7.91
2022-12-25T15:21:16.853Z,7.90
2022-12-25T15:23:43.555Z,7.88
2022-12-25T15:26:13.676Z,7.90
2022-12-25T15:28:40.240Z,7.91
2022-12-25T15:31:30.173Z,7.93
2022-12-25T15:34:00.430Z,7.96
2022-12-25T15:36:27.650Z,7.96
2022-12-25T15:38:54.748Z,7.96
2022-12-25T15:41:46.335Z,8.00
2022-12-25T15:44:13.062Z,7.99
2022-12-25T15:46:39.739Z,8.01
2022-12-25T15:49:06.356Z,8.01
2022-12-25T15:51:33.329Z,8.00
2022-12-25T15:53:59.889Z,7.99
2022-12-25T15:56:27.039Z,8.03
2022-12-25T15:58:53.605Z,8.01
2022-12-25T16:01:21.369Z,8.02
2022-12-25T16:03:50.140Z,8.04
2022-12-25T16:06:18.330Z,8.07
2022-12-25T16:08:45.678Z,8.09
2022-12-25T16:11:12.536Z,8.10
2022-12-25T16:13:39.122Z,8.11
2022-12-25T16:16:07.002Z,8.11
2022-12-25T16:18:33.821Z,8.08
2022-12-25T16:21:00.573Z,8.07
2022-12-25T16:23:27.393Z,8.08
2022-12-25T16:25:54.036Z,8.11
2022-12-25T16:28:20.561Z,8.14
2022-12-25T16:30:47.255Z,8.15
2022-12-25T16:33:13.927Z,8.17
2022-12-25T16:35:40.507Z,8.18
2022-12-25T16:38:07.061Z,8.21
2022-12-25T16:40:34.201Z,8.24
2022-12-25T16:43:00.801Z,8.26
2022-12-25T16:45:27.482Z,8.29
2022-12-25T16:47:54.130Z,8.29
2022-12-25T16:50:20.711Z,8.33
2022-12-25T16:52:47.412Z,8.36
2022-12-25T16:55:14.042Z,8.36
2022-12-25T16:57:40.637Z,8.39
2022-12-25T17:00:08.730Z,8.42
2022-12-25T17:02:35.451Z,8.45
2022-12-25T17:05:02.410Z,8.46
2022-12-25T17:07:28.957Z,8.48
2022-12-25T17:09:57.178Z,8.51
2022-12-25T17:12:23.779Z,8.50
2022-12-25T17:14:50.316Z,8.54
2022-12-25T17:17:16.858Z,8.55
2022-12-25T17:19:43.448Z,8.57
2022-12-25T17:22:10.035Z,8.59
2022-12-25T17:24:37.445Z,8.59
2022-12-25T17:27:04.408Z,8.61
2022-12-25T17:29:32.064Z,8.58
2022-12-25T17:31:58.799Z,8.63
2022-12-25T17:34:25.451Z,8.69
2022-12-25T17:36:53.519Z,8.72
2022-12-25T17:39:20.056Z,8.72
2022-12-25T17:41:49.444Z,8.72
2022-12-25T17:44:16.609Z,8.70
2022-12-25T17:46:43.683Z,8.71
2022-12-25T17:49:15.672Z,8.71
2022-12-25T17:51:42.362Z,8.75
2022-12-25T17:54:09.641Z,8.75
2022-12-25T17:56:36.977Z,8.77
2022-12-25T17:59:09.742Z,8.80
2022-12-25T18:01:38.850Z,8.77
2022-12-25T18:04:06.739Z,8.80
2022-12-25T18:06:36.156Z,8.83
2022-12-25T18:09:02.843Z,8.84
2022-12-25T18:11:32.882Z,8.89
2022-12-25T18:14:02.584Z,8.92
2022-12-25T18:16:30.950Z,8.96
2022-12-25T18:18:59.649Z,9.00
2022-12-25T18:21:26.657Z,9.04
2022-12-25T18:23:53.250Z,9.07
2022-12-25T18:26:20.930Z,9.05
2022-12-25T18:28:48.894Z,9.05
2022-12-25T18:31:21.508Z,9.05
2022-12-25T18:33:49.125Z,9.08
2022-12-25T18:36:21.070Z,9.12
2022-12-25T18:38:48.968Z,9.16
2022-12-25T18:41:15.980Z,9.20
2022-12-25T18:43:53.548Z,9.26
2022-12-25T18:46:24.970Z,9.32
2022-12-25T18:48:52.916Z,9.37
2022-12-25T18:51:19.587Z,9.41
2022-12-25T18:53:46.303Z,9.46
2022-12-25T18:56:18.294Z,9.52
2022-12-25T18:58:46.800Z,9.56
2022-12-25T19:01:24.130Z,9.60
2022-12-25T19:03:53.146Z,9.65
2022-12-25T19:06:33.952Z,9.64
2022-12-25T19:09:00.517Z,9.67
2022-12-25T19:11:47.101Z,9.68
2022-12-25T19:14:14.208Z,9.70
2022-12-25T19:16:41.147Z,9.72
2022-12-25T19:19:07.803Z,9.75
2022-12-25T19:21:34.337Z,9.76
2022-12-25T19:24:00.929Z,9.79
2022-12-25T19:26:28.036Z,9.82
2022-12-25T19:29:00.946Z,9.87
2022-12-25T19:31:27.567Z,9.90
2022-12-25T19:33:54.192Z,9.92
2022-12-25T19:36:20.832Z,9.93
2022-12-25T19:38:47.343Z,9.97
2022-12-25T19:41:17.031Z,9.99
2022-12-25T19:43:45.687Z,10.01
2022-12-25T19:46:18.847Z,10.02
2022-12-25T19:48:48.817Z,10.03
2022-12-25T19:51:22.058Z,10.06
2022-12-25T19:53:48.753Z,10.10
2022-12-25T19:56:15.716Z,10.12
2022-12-25T19:58:42.499Z,10.12
2022-12-25T20:01:19.699Z,10.16
2022-12-25T20:03:47.520Z,10.19
2022-12-25T20:06:21.926Z,10.20
2022-12-25T20:08:52.710Z,10.16
2022-12-25T20:11:20.636Z,10.15
2022-12-25T20:13:47.367Z,10.12
2022-12-25T20:16:13.962Z,10.14
2022-12-25T20:18:40.738Z,10.15
2022-12-25T20:21:14.261Z,10.16
2022-12-25T20:23:42.840Z,10.18
2022-12-25T20:26:10.969Z,10.14
2022-12-25T20:28:37.975Z,10.14
2022-12-25T20:31:29.624Z,10.15
2022-12-25T20:33:58.059Z,10.15
2022-12-25T20:36:26.571Z,10.16
2022-12-25T20:38:55.019Z,10.15
2022-12-25T20:41:27.354Z,10.21
2022-12-25T20:43:54.871Z,10.22
2022-12-25T20:46:22.483Z,10.25
2022-12-25T20:48:49.224Z,10.26
2022-12-25T20:51:18.695Z,10.29
2022-12-25T20:53:46.165Z,10.27
2022-12-25T20:56:14.804Z,10.28
2022-12-25T20:58:41.945Z,10.30
2022-12-25T21:01:12.173Z,10.33
2022-12-25T21:03:41.667Z,10.31
2022-12-25T21:06:09.000Z,10.37
2022-12-25T21:08:36.607Z,10.35
2022-12-25T21:11:04.299Z,10.38
2022-12-25T21:13:34.431Z,10.39
2022-12-25T21:16:05.213Z,10.39
2022-12-25T21:18:31.799Z,10.40
2022-12-25T21:20:59.514Z,10.42
2022-12-25T21:23:28.944Z,10.42
2022-12-25T21:25:55.510Z,10.42
2022-12-25T21:28:23.133Z,10.43
2022-12-25T21:30:49.857Z,10.41
2022-12-25T21:33:34.781Z,10.40
2022-12-25T21:36:11.872Z,10.36
2022-12-25T21:38:39.049Z,10.39
2022-12-25T21:41:08.804Z,10.38
2022-12-25T21:43:36.766Z,10.37
2022-12-25T21:46:09.076Z,10.40
2022-12-25T21:48:37.280Z,10.39
2022-12-25T21:51:23.861Z,10.40
2022-12-25T21:53:51.039Z,10.39
2022-12-25T21:56:18.051Z,10.39
2022-12-25T21:58:44.716Z,10.41
2022-12-25T22:01:11.917Z,10.42
2022-12-25T22:03:38.648Z,10.41
2022-12-25T22:06:24.000Z,10.42
2022-12-25T22:08:50.535Z,10.41
2022-12-25T22:11:35.860Z,10.40
2022-12-25T22:14:20.753Z,10.39
2022-12-25T22:17:27.020Z,10.39
2022-12-25T22:19:53.762Z,10.37
2022-12-25T22:22:23.103Z,10.37
2022-12-25T22:24:54.878Z,10.37
2022-12-25T22:27:22.090Z,10.36
2022-12-25T22:29:48.672Z,10.36
2022-12-25T22:32:20.439Z,10.41
2022-12-25T22:34:47.553Z,10.40
2022-12-25T22:37:17.608Z,10.42
2022-12-25T22:39:45.224Z,10.41
2022-12-25T22:42:12.355Z,10.41
2022-12-25T22:44:39.046Z,10.41
2022-12-25T22:47:05.568Z,10.42
2022-12-25T22:49:32.095Z,10.44
2022-12-25T22:51:58.610Z,10.46
2022-12-25T22:54:28.450Z,10.49
2022-12-25T22:56:55.222Z,10.47
2022-12-25T22:59:22.971Z,10.45
2022-12-25T23:01:50.824Z,10.47
2022-12-25T23:04:17.724Z,10.50
2022-12-25T23:06:45.107Z,10.52
2022-12-25T23:09:17.542Z,10.51
2022-12-25T23:11:48.818Z,10.52
2022-12-25T23:14:34.011Z,10.53
2022-12-25T23:17:00.547Z,10.54
2022-12-25T23:19:45.949Z,10.55
2022-12-25T23:22:32.183Z,10.56
2022-12-25T23:25:17.831Z,10.58
2022-12-25T23:27:45.580Z,10.57
2022-12-25T23:30:15.342Z,10.55
2022-12-25T23:32:43.407Z,10.52
2022-12-25T23:35:11.124Z,10.41
2022-12-25T23:37:37.682Z,10.37
2022-12-25T23:40:04.795Z,10.34
2022-12-25T23:42:31.289Z,10.31
2022-12-25T23:44:57.832Z,10.25
2022-12-25T23:47:25.310Z,10.24
2022-12-25T23:49:51.829Z,10.24
2022-12-25T23:52:18.358Z,10.21
2022-12-25T23:54:45.090Z,10.18
2022-12-25T23:57:11.629Z,10.21
2022-12-25T23:59:38.238Z,10.25
